createdAt,value
2019-04-25T00:04:22.928Z,27.80
2019-04-25T00:09:32.299Z,28.17
2019-04-25T00:14:40.095Z,23.60
2019-04-25T00:19:48.599Z,22.22
2019-04-25T00:25:17.553Z,25.08
2019-04-25T00:30:24.561Z,21.73
2019-04-25T00:35:31.580Z,24.55
2019-04-25T00:40:38.573Z,25.08
2019-04-25T00:45:45.778Z,27.77
2019-04-25T00:50:54.536Z,29.30
2019-04-25T00:56:01.617Z,33.28
2019-04-25T01:01:21.869Z,40.00
2019-04-25T01:06:29.514Z,38.42
2019-04-25T01:11:36.595Z,31.35
2019-04-25T01:16:44.939Z,34.23
2019-04-25T01:21:54.794Z,34.25
2019-04-25T01:32:09.282Z,32.93
2019-04-25T01:42:59.547Z,33.63
2019-04-25T01:48:08.231Z,34.13
2019-04-25T01:58:21.589Z,28.33
2019-04-25T02:03:29.023Z,34.30
2019-04-25T02:08:36.571Z,28.70
2019-04-25T02:13:43.838Z,30.32
2019-04-25T02:18:52.448Z,33.88
2019-04-25T02:24:00.585Z,33.28
2019-04-25T02:29:07.931Z,31.50
2019-04-25T02:34:18.064Z,32.60
2019-04-25T02:39:25.261Z,30.77
2019-04-25T02:44:34.592Z,31.05
2019-04-25T02:50:03.491Z,30.97
2019-04-25T02:55:12.709Z,30.80
2019-04-25T03:00:45.945Z,27.50
2019-04-25T03:05:38.620Z,23.92
2019-04-25T03:10:45.585Z,23.38
2019-04-25T03:15:53.536Z,30.65
2019-04-25T03:21:13.374Z,26.07
2019-04-25T03:26:15.471Z,30.27
2019-04-25T03:31:26.714Z,24.47
2019-04-25T03:36:31.577Z,24.47
2019-04-25T03:41:38.557Z,26.75
2019-04-25T03:46:45.617Z,26.33
2019-04-25T03:51:53.852Z,24.63
2019-04-25T03:57:02.472Z,29.70
2019-04-25T04:02:10.943Z,28.38
2019-04-25T04:07:18.540Z,22.93
2019-04-25T04:12:25.583Z,26.02
2019-04-25T04:17:47.098Z,26.30
2019-04-25T04:23:01.389Z,22.13
2019-04-25T04:28:09.769Z,26.58
2019-04-25T04:33:29.823Z,16.45
2019-04-25T04:43:31.504Z,16.93
2019-04-25T04:48:38.591Z,20.35
2019-04-25T04:53:45.520Z,19.37
2019-04-25T04:58:53.971Z,14.00
2019-04-25T05:04:25.226Z,19.98
2019-04-25T05:09:33.481Z,10.25
2019-04-25T05:14:40.455Z,15.65
2019-04-25T05:19:47.579Z,13.00
2019-04-25T05:24:54.558Z,16.15
2019-04-25T05:30:01.579Z,20.62
2019-04-25T05:35:08.892Z,17.52
2019-04-25T05:40:17.164Z,13.43
2019-04-25T05:45:27.526Z,19.95
2019-04-25T05:50:34.582Z,19.80
2019-04-25T05:55:41.568Z,16.15
2019-04-25T06:00:50.272Z,17.67
2019-04-25T06:05:57.503Z,14.63
2019-04-25T06:11:26.243Z,16.32
2019-04-25T06:16:35.241Z,13.53
2019-04-25T06:21:43.533Z,9.15
2019-04-25T06:27:22.122Z,4.58
2019-04-25T06:32:29.498Z,7.67
2019-04-25T06:37:36.460Z,6.08
2019-04-25T06:42:46.451Z,2.83
2019-04-25T06:48:03.989Z,7.62
2019-04-25T06:53:13.579Z,8.18
2019-04-25T06:58:21.419Z,4.83
2019-04-25T07:03:29.618Z,2.27
2019-04-25T07:08:36.584Z,3.50
2019-04-25T07:13:43.932Z,6.55
2019-04-25T07:18:51.482Z,8.73
2019-04-25T07:23:58.510Z,3.95
2019-04-25T07:29:23.538Z,7.50
2019-04-25T07:34:30.717Z,8.83
2019-04-25T07:39:37.589Z,2.80
2019-04-25T07:44:51.965Z,3.92
2019-04-25T07:49:54.212Z,2.67
2019-04-25T07:55:01.473Z,3.65
2019-04-25T08:00:14.701Z,4.35
2019-04-25T08:05:22.067Z,3.40
2019-04-25T08:10:35.983Z,4.83
2019-04-25T08:15:50.278Z,4.53
2019-04-25T08:20:57.616Z,3.10
2019-04-25T08:26:04.620Z,2.95
2019-04-25T08:31:13.434Z,5.05
2019-04-25T08:36:20.599Z,7.08
2019-04-25T08:41:27.546Z,7.95
2019-04-25T08:46:36.765Z,7.75
2019-04-25T08:51:44.506Z,8.45
2019-04-25T08:56:53.173Z,7.45
2019-04-25T09:07:30.589Z,8.30
2019-04-25T09:12:37.778Z,5.47
2019-04-25T09:17:47.044Z,2.05
2019-04-25T09:22:54.307Z,3.20
2019-04-25T09:28:01.577Z,2.55
2019-04-25T09:33:09.452Z,1.22
2019-04-25T09:38:16.588Z,3.60
2019-04-25T09:43:23.600Z,3.92
2019-04-25T09:48:44.294Z,2.05
2019-04-25T09:53:57.718Z,26.27
2019-04-25T09:59:13.789Z,2.77
2019-04-25T10:04:22.956Z,3.85
2019-04-25T10:09:30.552Z,1.27
2019-04-25T10:15:42.996Z,2.10
2019-04-25T10:20:52.100Z,6.08
2019-04-25T10:25:59.494Z,5.92
2019-04-25T10:31:06.591Z,5.42
2019-04-25T10:36:14.600Z,1.42
2019-04-25T10:41:22.260Z,3.30
2019-04-25T10:46:29.446Z,1.72
2019-04-25T10:51:36.450Z,1.65
2019-04-25T10:56:45.661Z,2.20
2019-04-25T11:01:53.868Z,1.40
2019-04-25T11:07:03.618Z,3.17
2019-04-25T11:12:14.532Z,6.92
2019-04-25T11:22:27.542Z,5.92
2019-04-25T11:27:34.739Z,3.98
2019-04-25T11:32:44.784Z,1.60
2019-04-25T11:42:59.584Z,2.00
2019-04-25T11:48:07.248Z,1.37
2019-04-25T11:58:20.614Z,1.80
2019-04-25T12:25:29.550Z,10.63
2019-04-25T12:30:40.168Z,3.00
2019-04-25T12:35:45.435Z,22.02
2019-04-25T12:40:54.169Z,21.42
2019-04-25T12:46:20.247Z,3.42
2019-04-25T12:51:28.057Z,3.15
2019-04-25T12:56:35.257Z,2.22
2019-04-25T13:01:43.419Z,3.85
2019-04-25T13:06:50.582Z,4.08
2019-04-25T13:11:57.457Z,1.02
2019-04-25T13:17:08.016Z,1.27
2019-04-25T13:22:13.995Z,6.55
2019-04-25T13:28:26.991Z,3.75
2019-04-25T13:34:01.575Z,15.65
2019-04-25T13:39:16.342Z,18.73
2019-04-25T13:44:24.413Z,12.93
2019-04-25T13:49:31.675Z,11.93
2019-04-25T13:54:43.677Z,5.70
2019-04-25T13:59:50.587Z,3.33
2019-04-25T14:04:57.556Z,1.22
2019-04-25T14:10:10.574Z,42.60
2019-04-25T14:15:20.981Z,2.33
2019-04-25T14:25:41.443Z,6.28
2019-04-25T14:30:48.581Z,15.13
2019-04-25T14:35:55.463Z,14.38
2019-04-25T14:41:02.476Z,10.93
2019-04-25T14:46:09.568Z,4.43
2019-04-25T14:51:16.616Z,2.58
2019-04-25T14:56:35.260Z,2.65
2019-04-25T15:06:49.722Z,1.62
2019-04-25T15:11:56.558Z,2.70
2019-04-25T15:17:05.230Z,7.87
2019-04-25T15:32:27.577Z,3.00
2019-04-25T15:43:07.244Z,1.35
2019-04-25T15:48:14.393Z,3.60
2019-04-25T15:53:22.097Z,9.28
2019-04-25T15:58:29.808Z,22.35
2019-04-25T16:03:36.914Z,9.10
2019-04-25T16:08:44.300Z,4.00
2019-04-25T16:13:51.603Z,2.98
2019-04-25T16:18:58.873Z,22.22
2019-04-25T16:24:06.504Z,38.50
2019-04-25T16:29:14.654Z,6.60
2019-04-25T16:34:21.684Z,28.02
2019-04-25T16:39:30.984Z,2.30
2019-04-25T16:54:50.413Z,8.80
2019-04-25T16:59:57.491Z,26.45
2019-04-25T17:05:04.698Z,21.55
2019-04-25T17:10:12.603Z,9.70
2019-04-25T17:15:32.052Z,17.05
2019-04-25T17:20:47.923Z,8.75
2019-04-25T17:31:14.250Z,3.05
2019-04-25T17:36:39.294Z,2.65
2019-04-25T17:41:46.518Z,5.53
2019-04-25T17:51:59.592Z,6.28
2019-04-25T17:57:07.456Z,11.15
2019-04-25T18:02:14.859Z,15.40
2019-04-25T18:07:21.879Z,11.35
2019-04-25T18:12:28.964Z,5.47
2019-04-25T18:22:59.283Z,2.40
2019-04-25T18:28:13.943Z,3.02
2019-04-25T18:33:28.643Z,4.45
2019-04-25T18:39:00.525Z,5.00
2019-04-25T18:44:09.544Z,12.23
2019-04-25T18:49:16.599Z,4.78
2019-04-25T18:54:41.280Z,6.65
2019-04-25T19:05:30.548Z,5.12
2019-04-25T19:10:39.409Z,10.10
2019-04-25T19:20:52.591Z,10.78
2019-04-25T19:25:59.612Z,6.75
2019-04-25T19:31:06.625Z,7.20
2019-04-25T19:36:13.591Z,3.92
2019-04-25T19:41:29.258Z,5.00
2019-04-25T19:46:49.293Z,5.97
2019-04-25T19:51:56.588Z,18.10
2019-04-25T19:57:03.628Z,5.70
2019-04-25T20:02:18.122Z,7.65
2019-04-25T20:07:36.528Z,6.60
2019-04-25T20:12:48.510Z,9.88
2019-04-25T20:17:54.471Z,8.03
2019-04-25T20:23:01.605Z,7.62
2019-04-25T20:28:08.622Z,7.12
2019-04-25T20:33:15.521Z,2.52
2019-04-25T20:38:22.624Z,24.12
2019-04-25T20:43:29.575Z,6.92
2019-04-25T20:48:37.443Z,5.78
2019-04-25T20:53:44.608Z,5.75
2019-04-25T20:58:51.869Z,4.72
2019-04-25T21:03:58.626Z,6.92
2019-04-25T21:09:07.258Z,3.20
2019-04-25T21:14:27.430Z,4.53
2019-04-25T21:19:40.411Z,2.92
2019-04-25T21:24:47.574Z,9.25
2019-04-25T21:29:55.552Z,4.42
2019-04-25T21:35:02.558Z,6.45
2019-04-25T21:40:18.161Z,5.67
2019-04-25T21:50:31.461Z,6.37
2019-04-25T21:55:38.773Z,6.76
2019-04-25T22:01:04.530Z,6.33
2019-04-25T22:06:13.483Z,3.12
2019-04-25T22:11:20.492Z,3.70
2019-04-25T22:16:27.588Z,4.25
2019-04-25T22:21:38.092Z,4.90
2019-04-25T22:26:43.619Z,4.25
2019-04-25T22:32:12.677Z,4.30
2019-04-25T22:37:20.263Z,4.30
2019-04-25T22:42:27.505Z,5.08
2019-04-25T22:47:34.460Z,16.93
2019-04-25T22:52:41.498Z,12.47
2019-04-25T22:57:48.448Z,12.00
2019-04-25T23:03:02.315Z,5.62
2019-04-25T23:08:10.142Z,7.17
2019-04-25T23:13:17.421Z,6.05
2019-04-25T23:18:24.668Z,4.47
2019-04-25T23:23:32.385Z,5.62
2019-04-25T23:28:41.586Z,6.62
2019-04-25T23:33:48.487Z,4.97
2019-04-25T23:38:55.602Z,7.40
2019-04-25T23:44:02.976Z,6.70
2019-04-25T23:49:10.626Z,6.05
2019-04-25T23:54:17.688Z,5.25
2019-04-25T23:59:24.583Z,8.48
